Weather reports worldwide

Advertisment
Glasgow/Intl, United Kingdom (3140): temperature & dewpoint: 17.05.2018 02:00:00 - 23.05.2018 02:00:00 (BST)Glasgow/Intl, United Kingdom (3140): wind speed: 17.05.2018 02:00:00 - 23.05.2018 02:00:00 (BST)Glasgow/Intl, United Kingdom (3140): wind direction: 17.05.2018 02:00:00 - 23.05.2018 02:00:00 (BST)Glasgow/Intl, United Kingdom (3140): visibility: 17.05.2018 02:00:00 - 23.05.2018 02:00:00 (BST)
Date & Time tt [°C] td [°C] ff [km/h] ff [kn] dd vv [km]
23.05.2018 02:00:00 10,0 6,0 21 11 E 10
23.05.2018 01:00:00 10,0 6,0 22 12 E 10
23.05.2018 00:00:00 10,0 7,0 21 11 ENE 10
22.05.2018 23:00:00 10,0 7,0 15 8 ENE 10
22.05.2018 22:00:00 11,0 7,0 18 10 ENE 10
22.05.2018 21:00:00 12,0 7,0 22 12 E 10
22.05.2018 20:00:00 13,0 8,0 24 13 E 10
22.05.2018 19:00:00 14,0 8,0 22 12 E 10
22.05.2018 18:00:00 15,0 8,0 21 11 ENE 10
22.05.2018 17:00:00 16,0 8,0 21 11 ENE 10
22.05.2018 16:00:00 15,0 8,0 22 12 ENE 10
22.05.2018 15:00:00 16,0 8,0 18 10 E 10
22.05.2018 14:00:00 15,0 8,0 22 12 E 10
22.05.2018 13:00:00 15,0 8,0 24 13 E 10
22.05.2018 12:00:00 14,0 7,0 22 12 ENE 10
22.05.2018 11:00:00 12,0 7,0 21 11 ENE 10
22.05.2018 10:00:00 12,0 7,0 22 12 ENE 10
22.05.2018 09:00:00 11,0 7,0 21 11 ENE 10
22.05.2018 08:00:00 10,0 7,0 16 9 E 10
22.05.2018 07:00:00 9,0 6,0 18 10 ENE 10
22.05.2018 06:00:00 10,0 7,0 18 10 E 10
22.05.2018 05:00:00 10,0 7,0 24 13 E 10
22.05.2018 04:00:00 10,0 7,0 22 12 E 10
22.05.2018 03:00:00 11,0 7,0 18 10 ENE 10
22.05.2018 02:00:00 11,0 9,0 21 11 ENE 10
22.05.2018 01:00:00 10,0 8,0 4 2 ENE 10
22.05.2018 00:00:00 10,0 8,0 5 3 WSW 10
21.05.2018 23:00:00 9,0 7,0 8 4 SW 10
21.05.2018 22:00:00 10,0 8,0 5 3 W 10
21.05.2018 21:00:00 11,0 8,0 13 7 W 10
21.05.2018 20:00:00 12,0 9,0 16 9 WNW 10
21.05.2018 19:00:00 13,0 10,0 16 9 WNW 10
21.05.2018 18:00:00 15,0 10,0 21 11 SW 10
21.05.2018 17:00:00 16,0 10,0 22 12 SW 10
21.05.2018 16:00:00 17,0 11,0 24 13 SW 10
21.05.2018 15:00:00 16,0 10,0 24 13 SSW 10
21.05.2018 14:00:00 16,0 10,0 21 11 SW 10
21.05.2018 13:00:00 16,0 9,0 16 9 WSW 10
21.05.2018 12:00:00 16,0 10,0 8 4 WSW 10
21.05.2018 11:00:00 16,0 10,0 4 2 - 10
21.05.2018 10:00:00 15,0 9,0 5 3 - 10
21.05.2018 09:00:00 14,0 8,0 9 5 NE 10
21.05.2018 08:00:00 12,0 7,0 11 6 NE 10
21.05.2018 07:00:00 12,0 7,0 8 4 N 10
21.05.2018 06:00:00 11,0 8,0 11 6 NE 10
21.05.2018 05:00:00 11,0 8,0 5 3 NNE 10
21.05.2018 04:00:00 10,0 9,0 8 4 NE 10
21.05.2018 03:00:00 11,0 8,0 5 3 ENE 10
21.05.2018 02:00:00 13,0 8,0 8 4 - 10
21.05.2018 01:00:00 14,0 7,0 9 5 SSE 10
21.05.2018 00:00:00 15,0 5,0 13 7 SSE 10
20.05.2018 23:00:00 15,0 5,0 11 6 SSE 10
20.05.2018 22:00:00 15,0 7,0 9 5 SSE 10
20.05.2018 21:00:00 15,0 8,0 16 9 S 10
20.05.2018 20:00:00 15,0 8,0 22 12 S 10
20.05.2018 19:00:00 16,0 8,0 16 9 SSW 10
20.05.2018 18:00:00 16,0 7,0 21 11 SSW 10
20.05.2018 17:00:00 15,0 9,0 11 6 WSW 10
20.05.2018 16:00:00 17,0 8,0 18 10 SSW 10
20.05.2018 15:00:00 17,0 8,0 16 9 S 10
20.05.2018 14:00:00 17,0 9,0 29 16 SSW 10
20.05.2018 13:00:00 17,0 8,0 21 11 S 10
20.05.2018 12:00:00 16,0 8,0 18 10 S 10
20.05.2018 11:00:00 15,0 8,0 15 8 SSE 10
20.05.2018 10:00:00 14,0 8,0 16 9 S 10
20.05.2018 09:00:00 14,0 7,0 16 9 S 10
20.05.2018 08:00:00 13,0 6,0 21 11 S 10
20.05.2018 07:00:00 13,0 6,0 16 9 S 10
20.05.2018 06:00:00 12,0 6,0 11 6 SSW 10
20.05.2018 05:00:00 13,0 6,0 15 8 S 10
20.05.2018 04:00:00 13,0 6,0 13 7 S 10
20.05.2018 03:00:00 14,0 6,0 22 12 S 10
20.05.2018 02:00:00 13,0 7,0 13 7 SSW 10
20.05.2018 01:00:00 13,0 7,0 9 5 SE 10
20.05.2018 00:00:00 13,0 7,0 11 6 SSE 10
19.05.2018 23:00:00 13,0 7,0 9 5 SSW 10
19.05.2018 22:00:00 15,0 6,0 21 11 S 10
19.05.2018 21:00:00 15,0 5,0 16 9 S 10
19.05.2018 20:00:00 16,0 5,0 18 10 S 10
19.05.2018 19:00:00 17,0 6,0 26 14 SSW 10
19.05.2018 18:00:00 18,0 7,0 24 13 S 10
19.05.2018 17:00:00 19,0 6,0 28 15 SSW 10
19.05.2018 16:00:00 20,0 6,0 28 15 SSW 10
19.05.2018 15:00:00 20,0 7,0 26 14 SW 10
19.05.2018 14:00:00 20,0 7,0 21 11 S 10
19.05.2018 13:00:00 20,0 7,0 16 9 SSW 10
19.05.2018 12:00:00 19,0 7,0 21 11 SSW 10
19.05.2018 11:00:00 18,0 6,0 15 8 SSW 10
19.05.2018 10:00:00 15,0 6,0 4 2 - 10
19.05.2018 09:00:00 13,0 6,0 4 2 - 10
19.05.2018 08:00:00 10,0 7,0 4 2 - 10
19.05.2018 07:00:00 7,0 6,0 2 1 N 9
19.05.2018 06:00:00 7,0 6,0 5 3 NE 10
19.05.2018 05:00:00 6,0 5,0 8 4 ENE 10
19.05.2018 04:00:00 7,0 6,0 8 4 E 10
19.05.2018 03:00:00 8,0 6,0 4 2 - 10
19.05.2018 02:00:00 9,0 6,0 5 3 SW 10
19.05.2018 01:00:00 9,0 5,0 4 2 - 10
19.05.2018 00:00:00 10,0 6,0 5 3 W 10
18.05.2018 23:00:00 10,0 6,0 5 3 - 10
18.05.2018 22:00:00 12,0 7,0 5 3 - 10
18.05.2018 21:00:00 13,0 8,0 15 8 SSW 10
18.05.2018 20:00:00 15,0 8,0 15 8 SW 10
18.05.2018 19:00:00 17,0 9,0 16 9 SW 10
18.05.2018 18:00:00 17,0 8,0 15 8 SSW 10
18.05.2018 17:00:00 17,0 7,0 18 10 SW 10
18.05.2018 16:00:00 17,0 8,0 16 9 SW 10
18.05.2018 15:00:00 17,0 7,0 18 10 SW 10
18.05.2018 14:00:00 15,0 6,0 16 9 W 10
18.05.2018 13:00:00 16,0 6,0 18 10 SSW 10
18.05.2018 12:00:00 15,0 5,0 13 7 SW 10
18.05.2018 11:00:00 14,0 7,0 5 3 - 10
18.05.2018 10:00:00 13,0 6,0 4 2 - 10
18.05.2018 09:00:00 11,0 6,0 5 3 - 10
18.05.2018 08:00:00 8,0 6,0 4 2 - 10
18.05.2018 07:00:00 6,0 5,0 2 1 - 10
18.05.2018 06:00:00 5,0 4,0 2 1 - 10
18.05.2018 05:00:00 4,0 3,0 2 1 SE 10
18.05.2018 04:00:00 6,0 4,0 4 2 ENE 10
18.05.2018 03:00:00 6,0 5,0 4 2 NNW 10
18.05.2018 02:00:00 7,0 6,0 2 1 - 10
18.05.2018 01:00:00 8,0 6,0 2 1 ENE 10
18.05.2018 00:00:00 9,0 5,0 2 1 - 10
17.05.2018 23:00:00 10,0 5,0 4 2 - 10
17.05.2018 22:00:00 11,0 5,0 4 2 - 10
17.05.2018 21:00:00 12,0 6,0 11 6 SW 10
17.05.2018 20:00:00 15,0 7,0 16 9 SW 10
17.05.2018 19:00:00 17,0 6,0 4 2 - 10
17.05.2018 18:00:00 17,0 6,0 5 3 - 10
17.05.2018 17:00:00 17,0 6,0 9 5 WSW 10
17.05.2018 16:00:00 17,0 5,0 5 3 - 10
17.05.2018 15:00:00 17,0 5,0 5 3 - 10
17.05.2018 14:00:00 17,0 6,0 9 5 - 10
17.05.2018 13:00:00 16,0 6,0 4 2 - 10
17.05.2018 12:00:00 14,0 6,0 8 4 WSW 10
17.05.2018 11:00:00 13,0 6,0 5 3 - 10
17.05.2018 10:00:00 12,0 4,0 4 2 - 10
17.05.2018 09:00:00 10,0 5,0 2 1 - 10
17.05.2018 08:00:00 8,0 5,0 4 2 - 10
17.05.2018 07:00:00 5,0 4,0 4 2 WSW 10
17.05.2018 06:00:00 3,0 2,0 2 1 - 10
17.05.2018 05:00:00 5,0 4,0 5 3 NE 10
17.05.2018 04:00:00 5,0 3,0 8 4 NE 10
17.05.2018 03:00:00 7,0 3,0 11 6 ENE 10
17.05.2018 02:00:00 7,0 3,0 8 4 E 10

tt = temperature
td = dewpoint
ff = wind speed
dd = wind direction
vv = visibility

Next stations